sensor_id;sensor_type;location;lat;lon;timestamp;temperature;humidity
64549;DHT22;49838;51.798;10.954;2023-04-04T00:00:17;7.10;33.80
64549;DHT22;49838;51.798;10.954;2023-04-04T00:02:44;7.10;33.90
64549;DHT22;49838;51.798;10.954;2023-04-04T00:05:11;7.10;33.80
64549;DHT22;49838;51.798;10.954;2023-04-04T00:07:39;7.00;33.80
64549;DHT22;49838;51.798;10.954;2023-04-04T00:10:07;7.00;33.80
64549;DHT22;49838;51.798;10.954;2023-04-04T00:12:36;7.00;33.80
64549;DHT22;49838;51.798;10.954;2023-04-04T00:15:04;7.00;33.80
64549;DHT22;49838;51.798;10.954;2023-04-04T00:17:32;7.00;33.90
64549;DHT22;49838;51.798;10.954;2023-04-04T00:19:59;6.90;33.80
64549;DHT22;49838;51.798;10.954;2023-04-04T00:22:29;6.90;33.90
64549;DHT22;49838;51.798;10.954;2023-04-04T00:24:56;6.90;33.90
64549;DHT22;49838;51.798;10.954;2023-04-04T00:27:23;7.00;33.90
64549;DHT22;49838;51.798;10.954;2023-04-04T00:29:52;7.00;34.00
64549;DHT22;49838;51.798;10.954;2023-04-04T00:32:19;7.00;34.00
64549;DHT22;49838;51.798;10.954;2023-04-04T00:34:50;7.00;34.00
64549;DHT22;49838;51.798;10.954;2023-04-04T00:37:18;7.00;34.00
64549;DHT22;49838;51.798;10.954;2023-04-04T00:39:46;7.00;34.00
64549;DHT22;49838;51.798;10.954;2023-04-04T00:42:14;7.00;34.00
64549;DHT22;49838;51.798;10.954;2023-04-04T00:44:41;7.00;34.00
64549;DHT22;49838;51.798;10.954;2023-04-04T00:47:10;7.00;34.10
64549;DHT22;49838;51.798;10.954;2023-04-04T00:49:37;7.00;34.10
64549;DHT22;49838;51.798;10.954;2023-04-04T00:52:04;7.00;34.10
64549;DHT22;49838;51.798;10.954;2023-04-04T00:54:33;7.00;34.10
64549;DHT22;49838;51.798;10.954;2023-04-04T00:57:01;7.00;34.10
64549;DHT22;49838;51.798;10.954;2023-04-04T00:59:29;7.00;34.10
64549;DHT22;49838;51.798;10.954;2023-04-04T01:01:58;7.10;34.20
64549;DHT22;49838;51.798;10.954;2023-04-04T01:04:27;7.10;34.20
64549;DHT22;49838;51.798;10.954;2023-04-04T01:06:55;7.10;34.20
64549;DHT22;49838;51.798;10.954;2023-04-04T01:09:22;7.10;34.20
64549;DHT22;49838;51.798;10.954;2023-04-04T01:11:50;7.10;34.20
64549;DHT22;49838;51.798;10.954;2023-04-04T01:14:19;7.20;34.30
64549;DHT22;49838;51.798;10.954;2023-04-04T01:16:46;7.20;34.30
64549;DHT22;49838;51.798;10.954;2023-04-04T01:19:17;7.20;34.30
64549;DHT22;49838;51.798;10.954;2023-04-04T01:21:52;7.20;34.30
64549;DHT22;49838;51.798;10.954;2023-04-04T01:24:20;7.20;34.30
64549;DHT22;49838;51.798;10.954;2023-04-04T01:26:51;7.20;34.30
64549;DHT22;49838;51.798;10.954;2023-04-04T01:29:19;7.20;34.30
64549;DHT22;49838;51.798;10.954;2023-04-04T01:31:48;7.30;34.30
64549;DHT22;49838;51.798;10.954;2023-04-04T01:34:23;7.30;34.40
64549;DHT22;49838;51.798;10.954;2023-04-04T01:36:58;7.30;34.30
64549;DHT22;49838;51.798;10.954;2023-04-04T01:39:30;7.30;34.40
64549;DHT22;49838;51.798;10.954;2023-04-04T01:42:03;7.20;34.30
64549;DHT22;49838;51.798;10.954;2023-04-04T01:44:32;7.20;34.30
64549;DHT22;49838;51.798;10.954;2023-04-04T01:47:00;7.20;34.30
64549;DHT22;49838;51.798;10.954;2023-04-04T01:49:28;7.20;34.30
64549;DHT22;49838;51.798;10.954;2023-04-04T01:51:56;7.20;34.30
64549;DHT22;49838;51.798;10.954;2023-04-04T01:54:23;7.20;34.30
64549;DHT22;49838;51.798;10.954;2023-04-04T01:56:50;7.20;34.40
64549;DHT22;49838;51.798;10.954;2023-04-04T01:59:19;7.20;34.30
64549;DHT22;49838;51.798;10.954;2023-04-04T02:01:47;7.20;34.40
64549;DHT22;49838;51.798;10.954;2023-04-04T02:04:14;7.20;34.40
64549;DHT22;49838;51.798;10.954;2023-04-04T02:06:41;7.20;34.40
64549;DHT22;49838;51.798;10.954;2023-04-04T02:09:08;7.20;34.30
64549;DHT22;49838;51.798;10.954;2023-04-04T02:11:35;7.10;34.30
64549;DHT22;49838;51.798;10.954;2023-04-04T02:14:03;7.10;34.30
64549;DHT22;49838;51.798;10.954;2023-04-04T02:16:33;7.10;34.30
64549;DHT22;49838;51.798;10.954;2023-04-04T02:19:01;7.00;34.30
64549;DHT22;49838;51.798;10.954;2023-04-04T02:21:29;7.00;34.30
64549;DHT22;49838;51.798;10.954;2023-04-04T02:23:56;7.00;34.40
64549;DHT22;49838;51.798;10.954;2023-04-04T02:26:23;7.00;34.30
64549;DHT22;49838;51.798;10.954;2023-04-04T02:28:51;6.90;34.20
64549;DHT22;49838;51.798;10.954;2023-04-04T02:31:18;6.90;34.30
64549;DHT22;49838;51.798;10.954;2023-04-04T02:33:47;6.90;34.30
64549;DHT22;49838;51.798;10.954;2023-04-04T02:36:14;6.90;34.30
64549;DHT22;49838;51.798;10.954;2023-04-04T02:38:41;6.90;34.30
64549;DHT22;49838;51.798;10.954;2023-04-04T02:41:08;6.80;34.20
64549;DHT22;49838;51.798;10.954;2023-04-04T02:43:36;6.80;34.20
64549;DHT22;49838;51.798;10.954;2023-04-04T02:46:03;6.80;34.20
64549;DHT22;49838;51.798;10.954;2023-04-04T02:48:30;6.70;34.20
64549;DHT22;49838;51.798;10.954;2023-04-04T02:50:59;6.70;34.20
64549;DHT22;49838;51.798;10.954;2023-04-04T02:53:26;6.70;34.30
64549;DHT22;49838;51.798;10.954;2023-04-04T02:55:53;6.70;34.30
64549;DHT22;49838;51.798;10.954;2023-04-04T02:58:21;6.60;34.20
64549;DHT22;49838;51.798;10.954;2023-04-04T03:00:52;6.60;34.20
64549;DHT22;49838;51.798;10.954;2023-04-04T03:03:20;6.60;34.20
64549;DHT22;49838;51.798;10.954;2023-04-04T03:05:48;6.60;34.20
64549;DHT22;49838;51.798;10.954;2023-04-04T03:08:17;6.50;34.20
64549;DHT22;49838;51.798;10.954;2023-04-04T03:10:44;6.50;34.20
64549;DHT22;49838;51.798;10.954;2023-04-04T03:13:12;6.50;34.20
64549;DHT22;49838;51.798;10.954;2023-04-04T03:15:39;6.50;34.20
64549;DHT22;49838;51.798;10.954;2023-04-04T03:18:06;6.50;34.20
64549;DHT22;49838;51.798;10.954;2023-04-04T03:20:34;6.40;34.20
64549;DHT22;49838;51.798;10.954;2023-04-04T03:23:02;6.40;34.20
64549;DHT22;49838;51.798;10.954;2023-04-04T03:25:30;6.30;34.10
64549;DHT22;49838;51.798;10.954;2023-04-04T03:27:58;6.30;34.10
64549;DHT22;49838;51.798;10.954;2023-04-04T03:30:34;6.30;34.10
64549;DHT22;49838;51.798;10.954;2023-04-04T03:33:02;6.30;34.20
64549;DHT22;49838;51.798;10.954;2023-04-04T03:35:32;6.20;34.10
64549;DHT22;49838;51.798;10.954;2023-04-04T03:38:00;6.20;34.20
64549;DHT22;49838;51.798;10.954;2023-04-04T03:40:28;6.10;34.10
64549;DHT22;49838;51.798;10.954;2023-04-04T03:42:57;6.10;34.10
64549;DHT22;49838;51.798;10.954;2023-04-04T03:45:24;6.00;34.10
64549;DHT22;49838;51.798;10.954;2023-04-04T03:47:51;6.00;34.00
64549;DHT22;49838;51.798;10.954;2023-04-04T03:50:19;5.90;34.00
64549;DHT22;49838;51.798;10.954;2023-04-04T03:52:47;5.90;34.00
64549;DHT22;49838;51.798;10.954;2023-04-04T03:55:14;5.90;34.10
64549;DHT22;49838;51.798;10.954;2023-04-04T03:57:42;5.90;34.10
64549;DHT22;49838;51.798;10.954;2023-04-04T04:00:11;5.80;34.00
64549;DHT22;49838;51.798;10.954;2023-04-04T04:02:40;5.90;34.10
64549;DHT22;49838;51.798;10.954;2023-04-04T04:05:07;5.90;34.10
64549;DHT22;49838;51.798;10.954;2023-04-04T04:07:35;5.80;34.10
64549;DHT22;49838;51.798;10.954;2023-04-04T04:10:02;5.80;34.10
64549;DHT22;49838;51.798;10.954;2023-04-04T04:12:30;5.80;34.10
64549;DHT22;49838;51.798;10.954;2023-04-04T04:14:57;5.80;34.10
64549;DHT22;49838;51.798;10.954;2023-04-04T04:17:26;5.70;34.00
64549;DHT22;49838;51.798;10.954;2023-04-04T04:19:53;5.80;34.20
64549;DHT22;49838;51.798;10.954;2023-04-04T04:22:21;5.70;34.10
64549;DHT22;49838;51.798;10.954;2023-04-04T04:24:48;5.70;34.10
64549;DHT22;49838;51.798;10.954;2023-04-04T04:27:16;5.70;34.10
64549;DHT22;49838;51.798;10.954;2023-04-04T04:29:43;5.70;34.10
64549;DHT22;49838;51.798;10.954;2023-04-04T04:32:14;5.70;34.20
64549;DHT22;49838;51.798;10.954;2023-04-04T04:34:43;5.70;34.20
64549;DHT22;49838;51.798;10.954;2023-04-04T04:37:11;5.70;34.20
64549;DHT22;49838;51.798;10.954;2023-04-04T04:39:38;5.70;34.10
64549;DHT22;49838;51.798;10.954;2023-04-04T04:42:05;5.70;34.20
64549;DHT22;49838;51.798;10.954;2023-04-04T04:44:33;5.70;34.10
64549;DHT22;49838;51.798;10.954;2023-04-04T04:47:00;5.90;34.30
64549;DHT22;49838;51.798;10.954;2023-04-04T04:49:29;5.80;34.20
64549;DHT22;49838;51.798;10.954;2023-04-04T04:51:58;5.80;34.20
64549;DHT22;49838;51.798;10.954;2023-04-04T04:54:26;5.90;34.20
64549;DHT22;49838;51.798;10.954;2023-04-04T04:56:53;5.90;34.20
64549;DHT22;49838;51.798;10.954;2023-04-04T04:59:20;5.90;34.10
64549;DHT22;49838;51.798;10.954;2023-04-04T05:01:48;6.00;34.20
64549;DHT22;49838;51.798;10.954;2023-04-04T05:04:15;6.10;34.30
64549;DHT22;49838;51.798;10.954;2023-04-04T05:06:43;6.10;34.20
64549;DHT22;49838;51.798;10.954;2023-04-04T05:09:11;6.20;34.30
64549;DHT22;49838;51.798;10.954;2023-04-04T05:11:39;6.30;34.30
64549;DHT22;49838;51.798;10.954;2023-04-04T05:14:06;6.40;34.40
64549;DHT22;49838;51.798;10.954;2023-04-04T05:16:33;6.40;34.30
64549;DHT22;49838;51.798;10.954;2023-04-04T05:19:00;6.50;34.30
64549;DHT22;49838;51.798;10.954;2023-04-04T05:21:28;6.50;34.30
64549;DHT22;49838;51.798;10.954;2023-04-04T05:23:55;6.60;34.40
64549;DHT22;49838;51.798;10.954;2023-04-04T05:26:24;6.70;34.50
64549;DHT22;49838;51.798;10.954;2023-04-04T05:28:52;6.80;34.60
64549;DHT22;49838;51.798;10.954;2023-04-04T05:31:19;7.00;34.80
64549;DHT22;49838;51.798;10.954;2023-04-04T05:33:46;7.20;34.80
64549;DHT22;49838;51.798;10.954;2023-04-04T05:36:13;7.50;35.10
64549;DHT22;49838;51.798;10.954;2023-04-04T05:38:40;7.70;35.10
64549;DHT22;49838;51.798;10.954;2023-04-04T05:41:08;7.90;35.20
64549;DHT22;49838;51.798;10.954;2023-04-04T05:43:37;8.40;35.80
64549;DHT22;49838;51.798;10.954;2023-04-04T05:46:04;8.90;36.10
64549;DHT22;49838;51.798;10.954;2023-04-04T05:48:31;9.50;36.10
64549;DHT22;49838;51.798;10.954;2023-04-04T05:50:59;10.10;35.20
64549;DHT22;49838;51.798;10.954;2023-04-04T05:53:26;10.70;35.30
64549;DHT22;49838;51.798;10.954;2023-04-04T05:55:54;11.00;35.10
64549;DHT22;49838;51.798;10.954;2023-04-04T05:58:21;11.40;35.20
64549;DHT22;49838;51.798;10.954;2023-04-04T06:00:50;12.00;35.60
64549;DHT22;49838;51.798;10.954;2023-04-04T06:03:17;12.60;35.80
64549;DHT22;49838;51.798;10.954;2023-04-04T06:05:48;13.20;35.80
64549;DHT22;49838;51.798;10.954;2023-04-04T06:08:16;13.40;35.70
64549;DHT22;49838;51.798;10.954;2023-04-04T06:10:43;13.50;35.70
64549;DHT22;49838;51.798;10.954;2023-04-04T06:13:10;13.50;35.60
64549;DHT22;49838;51.798;10.954;2023-04-04T06:15:38;13.40;35.50
64549;DHT22;49838;51.798;10.954;2023-04-04T06:18:06;13.50;36.30
64549;DHT22;49838;51.798;10.954;2023-04-04T06:20:34;13.60;35.80
64549;DHT22;49838;51.798;10.954;2023-04-04T06:23:01;13.90;35.90
64549;DHT22;49838;51.798;10.954;2023-04-04T06:25:29;14.10;35.90
64549;DHT22;49838;51.798;10.954;2023-04-04T06:27:57;14.50;36.10
64549;DHT22;49838;51.798;10.954;2023-04-04T06:30:24;15.00;36.30
64549;DHT22;49838;51.798;10.954;2023-04-04T06:32:51;15.40;36.50
64549;DHT22;49838;51.798;10.954;2023-04-04T06:35:20;15.60;36.20
64549;DHT22;49838;51.798;10.954;2023-04-04T06:37:52;15.70;36.10
64549;DHT22;49838;51.798;10.954;2023-04-04T06:40:20;16.00;35.60
64549;DHT22;49838;51.798;10.954;2023-04-04T06:42:48;16.20;34.90
64549;DHT22;49838;51.798;10.954;2023-04-04T06:45:17;16.30;34.80
64549;DHT22;49838;51.798;10.954;2023-04-04T06:47:44;16.40;34.80
64549;DHT22;49838;51.798;10.954;2023-04-04T06:50:12;16.30;35.10
64549;DHT22;49838;51.798;10.954;2023-04-04T06:52:41;16.50;35.10
64549;DHT22;49838;51.798;10.954;2023-04-04T06:55:09;16.90;36.00
64549;DHT22;49838;51.798;10.954;2023-04-04T06:57:36;17.20;36.10
64549;DHT22;49838;51.798;10.954;2023-04-04T07:00:04;17.60;36.30
64549;DHT22;49838;51.798;10.954;2023-04-04T07:02:32;17.90;36.40
64549;DHT22;49838;51.798;10.954;2023-04-04T07:05:00;18.00;35.90
64549;DHT22;49838;51.798;10.954;2023-04-04T07:07:28;18.20;35.90
64549;DHT22;49838;51.798;10.954;2023-04-04T07:09:57;18.40;35.90
64549;DHT22;49838;51.798;10.954;2023-04-04T07:12:24;18.80;36.40
64549;DHT22;49838;51.798;10.954;2023-04-04T07:14:51;19.30;36.20
64549;DHT22;49838;51.798;10.954;2023-04-04T07:17:18;19.60;36.40
64549;DHT22;49838;51.798;10.954;2023-04-04T07:19:45;19.90;35.80
64549;DHT22;49838;51.798;10.954;2023-04-04T07:22:13;19.90;35.80
64549;DHT22;49838;51.798;10.954;2023-04-04T07:24:40;19.80;35.10
64549;DHT22;49838;51.798;10.954;2023-04-04T07:27:09;19.80;35.80
64549;DHT22;49838;51.798;10.954;2023-04-04T07:29:40;20.10;36.20
64549;DHT22;49838;51.798;10.954;2023-04-04T07:32:07;20.40;35.90
64549;DHT22;49838;51.798;10.954;2023-04-04T07:34:34;20.70;36.00
64549;DHT22;49838;51.798;10.954;2023-04-04T07:37:02;21.00;35.40
64549;DHT22;49838;51.798;10.954;2023-04-04T07:39:29;21.00;35.80
64549;DHT22;49838;51.798;10.954;2023-04-04T07:41:57;21.20;35.70
64549;DHT22;49838;51.798;10.954;2023-04-04T07:44:25;21.40;35.70
64549;DHT22;49838;51.798;10.954;2023-04-04T07:46:53;21.70;35.90
64549;DHT22;49838;51.798;10.954;2023-04-04T07:49:20;22.00;35.80
64549;DHT22;49838;51.798;10.954;2023-04-04T07:51:47;22.30;35.90
64549;DHT22;49838;51.798;10.954;2023-04-04T07:54:14;22.30;35.00
64549;DHT22;49838;51.798;10.954;2023-04-04T07:56:42;22.00;34.90
64549;DHT22;49838;51.798;10.954;2023-04-04T07:59:09;22.20;35.20
64549;DHT22;49838;51.798;10.954;2023-04-04T08:01:41;22.00;35.10
64549;DHT22;49838;51.798;10.954;2023-04-04T08:04:08;22.10;35.50
64549;DHT22;49838;51.798;10.954;2023-04-04T08:06:35;22.60;35.90
64549;DHT22;49838;51.798;10.954;2023-04-04T08:09:03;23.10;36.00
64549;DHT22;49838;51.798;10.954;2023-04-04T08:11:31;23.60;35.90
64549;DHT22;49838;51.798;10.954;2023-04-04T08:13:58;24.10;36.10
64549;DHT22;49838;51.798;10.954;2023-04-04T08:16:29;24.40;35.80
64549;DHT22;49838;51.798;10.954;2023-04-04T08:18:58;24.80;35.40
64549;DHT22;49838;51.798;10.954;2023-04-04T08:21:26;25.00;35.40
64549;DHT22;49838;51.798;10.954;2023-04-04T08:23:53;25.40;35.40
64549;DHT22;49838;51.798;10.954;2023-04-04T08:26:20;25.60;35.20
64549;DHT22;49838;51.798;10.954;2023-04-04T08:28:48;25.70;34.60
64549;DHT22;49838;51.798;10.954;2023-04-04T08:31:16;25.70;34.60
64549;DHT22;49838;51.798;10.954;2023-04-04T08:33:43;25.70;34.50
64549;DHT22;49838;51.798;10.954;2023-04-04T08:36:12;26.00;34.90
64549;DHT22;49838;51.798;10.954;2023-04-04T08:38:39;26.30;34.60
64549;DHT22;49838;51.798;10.954;2023-04-04T08:41:06;26.70;34.60
64549;DHT22;49838;51.798;10.954;2023-04-04T08:43:35;27.10;33.80
64549;DHT22;49838;51.798;10.954;2023-04-04T08:46:06;27.10;32.80
64549;DHT22;49838;51.798;10.954;2023-04-04T08:48:35;27.10;32.70
64549;DHT22;49838;51.798;10.954;2023-04-04T08:51:05;26.90;32.30
64549;DHT22;49838;51.798;10.954;2023-04-04T08:53:35;26.50;32.60
64549;DHT22;49838;51.798;10.954;2023-04-04T08:56:03;26.00;31.50
64549;DHT22;49838;51.798;10.954;2023-04-04T08:58:31;25.30;32.10
64549;DHT22;49838;51.798;10.954;2023-04-04T09:00:58;24.90;32.10
64549;DHT22;49838;51.798;10.954;2023-04-04T09:03:26;25.10;34.00
64549;DHT22;49838;51.798;10.954;2023-04-04T09:05:56;25.60;33.40
64549;DHT22;49838;51.798;10.954;2023-04-04T09:08:23;26.20;33.50
64549;DHT22;49838;51.798;10.954;2023-04-04T09:10:53;26.70;31.80
64549;DHT22;49838;51.798;10.954;2023-04-04T09:13:21;26.60;32.20
64549;DHT22;49838;51.798;10.954;2023-04-04T09:15:49;26.10;31.70
64549;DHT22;49838;51.798;10.954;2023-04-04T09:18:18;25.50;31.30
64549;DHT22;49838;51.798;10.954;2023-04-04T09:20:46;24.80;31.10
64549;DHT22;49838;51.798;10.954;2023-04-04T09:23:14;24.00;30.00
64549;DHT22;49838;51.798;10.954;2023-04-04T09:25:44;23.30;30.10
64549;DHT22;49838;51.798;10.954;2023-04-04T09:28:14;22.80;29.80
64549;DHT22;49838;51.798;10.954;2023-04-04T09:30:42;22.30;29.10
64549;DHT22;49838;51.798;10.954;2023-04-04T09:33:10;21.90;29.20
64549;DHT22;49838;51.798;10.954;2023-04-04T09:35:42;21.50;29.60
64549;DHT22;49838;51.798;10.954;2023-04-04T09:38:11;21.00;29.20
64549;DHT22;49838;51.798;10.954;2023-04-04T09:40:43;20.50;28.70
64549;DHT22;49838;51.798;10.954;2023-04-04T09:43:11;20.10;28.80
64549;DHT22;49838;51.798;10.954;2023-04-04T09:45:40;19.80;29.30
64549;DHT22;49838;51.798;10.954;2023-04-04T09:48:10;19.60;28.80
64549;DHT22;49838;51.798;10.954;2023-04-04T09:50:44;19.30;28.60
64549;DHT22;49838;51.798;10.954;2023-04-04T09:53:15;19.00;28.30
64549;DHT22;49838;51.798;10.954;2023-04-04T09:55:42;18.80;28.30
64549;DHT22;49838;51.798;10.954;2023-04-04T09:58:17;18.50;27.90
64549;DHT22;49838;51.798;10.954;2023-04-04T10:00:47;18.20;28.70
64549;DHT22;49838;51.798;10.954;2023-04-04T10:03:15;18.00;28.50
64549;DHT22;49838;51.798;10.954;2023-04-04T10:05:43;17.90;28.70
64549;DHT22;49838;51.798;10.954;2023-04-04T10:08:15;17.70;29.00
64549;DHT22;49838;51.798;10.954;2023-04-04T10:10:47;17.70;29.20
64549;DHT22;49838;51.798;10.954;2023-04-04T10:13:21;17.70;29.30
64549;DHT22;49838;51.798;10.954;2023-04-04T10:15:51;17.70;29.40
64549;DHT22;49838;51.798;10.954;2023-04-04T10:18:19;18.20;29.90
64549;DHT22;49838;51.798;10.954;2023-04-04T10:20:49;19.00;31.10
64549;DHT22;49838;51.798;10.954;2023-04-04T10:23:16;19.40;30.10
64549;DHT22;49838;51.798;10.954;2023-04-04T10:25:45;19.20;29.40
64549;DHT22;49838;51.798;10.954;2023-04-04T10:28:16;19.00;29.20
64549;DHT22;49838;51.798;10.954;2023-04-04T10:30:47;18.60;28.10
64549;DHT22;49838;51.798;10.954;2023-04-04T10:33:19;18.10;28.00
64549;DHT22;49838;51.798;10.954;2023-04-04T10:35:53;17.80;28.40
64549;DHT22;49838;51.798;10.954;2023-04-04T10:38:25;18.00;29.40
64549;DHT22;49838;51.798;10.954;2023-04-04T10:40:55;18.80;30.30
64549;DHT22;49838;51.798;10.954;2023-04-04T10:43:25;19.30;30.30
64549;DHT22;49838;51.798;10.954;2023-04-04T10:45:59;20.00;32.00
64549;DHT22;49838;51.798;10.954;2023-04-04T10:48:35;20.70;32.70
64549;DHT22;49838;51.798;10.954;2023-04-04T10:51:03;21.30;32.90
64549;DHT22;49838;51.798;10.954;2023-04-04T10:53:30;21.90;31.60
64549;DHT22;49838;51.798;10.954;2023-04-04T10:55:59;22.40;32.10
64549;DHT22;49838;51.798;10.954;2023-04-04T10:58:27;22.80;32.50
64549;DHT22;49838;51.798;10.954;2023-04-04T11:00:55;23.30;32.90
64549;DHT22;49838;51.798;10.954;2023-04-04T11:03:23;23.80;31.60
64549;DHT22;49838;51.798;10.954;2023-04-04T11:05:52;24.10;30.70
64549;DHT22;49838;51.798;10.954;2023-04-04T11:08:26;24.00;29.60
64549;DHT22;49838;51.798;10.954;2023-04-04T11:10:55;23.70;30.00
64549;DHT22;49838;51.798;10.954;2023-04-04T11:13:24;23.20;29.70
64549;DHT22;49838;51.798;10.954;2023-04-04T11:15:54;22.80;29.80
64549;DHT22;49838;51.798;10.954;2023-04-04T11:21:14;21.80;29.30
64549;DHT22;49838;51.798;10.954;2023-04-04T11:24:12;21.50;29.50
64549;DHT22;49838;51.798;10.954;2023-04-04T11:26:41;21.20;29.50
64549;DHT22;49838;51.798;10.954;2023-04-04T11:29:11;20.80;28.50
64549;DHT22;49838;51.798;10.954;2023-04-04T11:31:47;20.40;28.20
64549;DHT22;49838;51.798;10.954;2023-04-04T11:34:28;19.90;28.60
64549;DHT22;49838;51.798;10.954;2023-04-04T11:36:57;19.40;27.50
64549;DHT22;49838;51.798;10.954;2023-04-04T11:39:28;18.90;26.90
64549;DHT22;49838;51.798;10.954;2023-04-04T11:41:58;18.50;26.30
64549;DHT22;49838;51.798;10.954;2023-04-04T11:44:29;18.00;27.90
64549;DHT22;49838;51.798;10.954;2023-04-04T11:46:59;17.70;27.60
64549;DHT22;49838;51.798;10.954;2023-04-04T11:49:31;17.40;26.50
64549;DHT22;49838;51.798;10.954;2023-04-04T11:52:04;17.10;27.10
64549;DHT22;49838;51.798;10.954;2023-04-04T11:54:33;16.70;27.40
64549;DHT22;49838;51.798;10.954;2023-04-04T11:57:01;16.50;27.80
64549;DHT22;49838;51.798;10.954;2023-04-04T11:59:29;16.40;27.90
64549;DHT22;49838;51.798;10.954;2023-04-04T12:01:57;16.40;27.20
64549;DHT22;49838;51.798;10.954;2023-04-04T12:04:25;16.30;27.10
64549;DHT22;49838;51.798;10.954;2023-04-04T12:06:54;16.20;27.30
64549;DHT22;49838;51.798;10.954;2023-04-04T12:09:24;16.10;27.60
64549;DHT22;49838;51.798;10.954;2023-04-04T12:11:53;16.10;27.50
64549;DHT22;49838;51.798;10.954;2023-04-04T12:14:22;16.10;27.00
64549;DHT22;49838;51.798;10.954;2023-04-04T12:16:50;16.00;27.70
64549;DHT22;49838;51.798;10.954;2023-04-04T12:19:19;16.10;27.70
64549;DHT22;49838;51.798;10.954;2023-04-04T12:21:48;16.00;26.60
64549;DHT22;49838;51.798;10.954;2023-04-04T12:24:17;16.00;26.90
64549;DHT22;49838;51.798;10.954;2023-04-04T12:26:47;15.90;27.10
64549;DHT22;49838;51.798;10.954;2023-04-04T12:29:18;15.90;27.00
64549;DHT22;49838;51.798;10.954;2023-04-04T12:31:48;15.80;27.00
64549;DHT22;49838;51.798;10.954;2023-04-04T12:34:16;15.70;26.80
64549;DHT22;49838;51.798;10.954;2023-04-04T12:36:45;15.50;27.00
64549;DHT22;49838;51.798;10.954;2023-04-04T12:39:14;15.30;27.00
64549;DHT22;49838;51.798;10.954;2023-04-04T12:41:51;15.10;27.30
64549;DHT22;49838;51.798;10.954;2023-04-04T12:44:26;15.00;27.50
64549;DHT22;49838;51.798;10.954;2023-04-04T12:46:56;15.00;27.60
64549;DHT22;49838;51.798;10.954;2023-04-04T12:49:28;15.00;27.30
64549;DHT22;49838;51.798;10.954;2023-04-04T12:51:57;15.00;27.80
64549;DHT22;49838;51.798;10.954;2023-04-04T12:54:30;15.30;28.00
64549;DHT22;49838;51.798;10.954;2023-04-04T12:57:01;15.50;28.10
64549;DHT22;49838;51.798;10.954;2023-04-04T12:59:30;15.70;27.50
64549;DHT22;49838;51.798;10.954;2023-04-04T13:01:59;15.70;27.40
64549;DHT22;49838;51.798;10.954;2023-04-04T13:04:27;15.60;26.70
64549;DHT22;49838;51.798;10.954;2023-04-04T13:06:54;15.40;26.70
64549;DHT22;49838;51.798;10.954;2023-04-04T13:09:22;15.20;26.90
64549;DHT22;49838;51.798;10.954;2023-04-04T13:11:55;15.20;26.40
64549;DHT22;49838;51.798;10.954;2023-04-04T13:14:26;15.10;26.40
64549;DHT22;49838;51.798;10.954;2023-04-04T13:17:00;15.00;26.70
64549;DHT22;49838;51.798;10.954;2023-04-04T13:19:29;14.90;26.50
64549;DHT22;49838;51.798;10.954;2023-04-04T13:21:57;14.90;27.20
64549;DHT22;49838;51.798;10.954;2023-04-04T13:24:29;14.90;27.40
64549;DHT22;49838;51.798;10.954;2023-04-04T13:26:56;14.90;27.50
64549;DHT22;49838;51.798;10.954;2023-04-04T13:29:23;15.00;27.60
64549;DHT22;49838;51.798;10.954;2023-04-04T13:31:53;14.90;27.60
64549;DHT22;49838;51.798;10.954;2023-04-04T13:34:20;15.20;27.70
64549;DHT22;49838;51.798;10.954;2023-04-04T13:36:49;15.30;27.40
64549;DHT22;49838;51.798;10.954;2023-04-04T13:39:16;15.30;26.90
64549;DHT22;49838;51.798;10.954;2023-04-04T13:41:43;15.20;26.80
64549;DHT22;49838;51.798;10.954;2023-04-04T13:44:12;15.00;27.40
64549;DHT22;49838;51.798;10.954;2023-04-04T13:46:41;15.00;27.80
64549;DHT22;49838;51.798;10.954;2023-04-04T13:49:10;15.00;26.80
64549;DHT22;49838;51.798;10.954;2023-04-04T13:51:37;14.90;26.70
64549;DHT22;49838;51.798;10.954;2023-04-04T13:54:04;14.90;26.70
64549;DHT22;49838;51.798;10.954;2023-04-04T13:56:31;14.80;26.70
64549;DHT22;49838;51.798;10.954;2023-04-04T13:58:58;14.80;26.80
64549;DHT22;49838;51.798;10.954;2023-04-04T14:01:26;14.70;26.90
64549;DHT22;49838;51.798;10.954;2023-04-04T14:03:55;14.70;27.20
64549;DHT22;49838;51.798;10.954;2023-04-04T14:06:23;14.70;26.90
64549;DHT22;49838;51.798;10.954;2023-04-04T14:08:51;14.70;26.60
64549;DHT22;49838;51.798;10.954;2023-04-04T14:11:18;14.70;26.50
64549;DHT22;49838;51.798;10.954;2023-04-04T14:13:46;14.70;27.00
64549;DHT22;49838;51.798;10.954;2023-04-04T14:16:13;14.70;27.40
64549;DHT22;49838;51.798;10.954;2023-04-04T14:18:41;14.80;27.50
64549;DHT22;49838;51.798;10.954;2023-04-04T14:21:08;14.90;27.70
64549;DHT22;49838;51.798;10.954;2023-04-04T14:23:41;15.10;27.80
64549;DHT22;49838;51.798;10.954;2023-04-04T14:26:09;15.20;27.30
64549;DHT22;49838;51.798;10.954;2023-04-04T14:28:36;15.30;27.30
64549;DHT22;49838;51.798;10.954;2023-04-04T14:31:04;15.20;27.40
64549;DHT22;49838;51.798;10.954;2023-04-04T14:33:31;15.30;27.20
64549;DHT22;49838;51.798;10.954;2023-04-04T14:35:59;15.20;27.20
64549;DHT22;49838;51.798;10.954;2023-04-04T14:38:26;15.20;27.20
64549;DHT22;49838;51.798;10.954;2023-04-04T14:40:54;15.20;27.60
64549;DHT22;49838;51.798;10.954;2023-04-04T14:43:22;15.30;27.20
64549;DHT22;49838;51.798;10.954;2023-04-04T14:45:52;15.20;27.20
64549;DHT22;49838;51.798;10.954;2023-04-04T14:48:19;15.20;27.30
64549;DHT22;49838;51.798;10.954;2023-04-04T14:50:46;15.00;27.70
64549;DHT22;49838;51.798;10.954;2023-04-04T14:53:14;15.10;27.70
64549;DHT22;49838;51.798;10.954;2023-04-04T14:55:44;15.10;27.80
64549;DHT22;49838;51.798;10.954;2023-04-04T14:58:14;15.00;27.80
64549;DHT22;49838;51.798;10.954;2023-04-04T15:00:42;15.00;27.50
64549;DHT22;49838;51.798;10.954;2023-04-04T15:03:10;14.90;27.20
64549;DHT22;49838;51.798;10.954;2023-04-04T15:05:38;14.70;27.00
64549;DHT22;49838;51.798;10.954;2023-04-04T15:08:05;14.60;26.90
64549;DHT22;49838;51.798;10.954;2023-04-04T15:10:33;14.40;27.00
64549;DHT22;49838;51.798;10.954;2023-04-04T15:13:00;14.20;27.40
64549;DHT22;49838;51.798;10.954;2023-04-04T15:15:29;14.10;27.80
64549;DHT22;49838;51.798;10.954;2023-04-04T15:17:57;14.10;28.30
64549;DHT22;49838;51.798;10.954;2023-04-04T15:20:24;14.00;27.70
64549;DHT22;49838;51.798;10.954;2023-04-04T15:22:51;13.90;27.80
64549;DHT22;49838;51.798;10.954;2023-04-04T15:25:19;14.00;27.90
64549;DHT22;49838;51.798;10.954;2023-04-04T15:27:46;13.90;27.80
64549;DHT22;49838;51.798;10.954;2023-04-04T15:30:14;13.90;28.00
64549;DHT22;49838;51.798;10.954;2023-04-04T15:32:42;14.00;27.70